Fort Nelson Airport, British Columbia

Past 24 Hour Conditions

Date / Time
(PDT)
Conditions Temp
(°F)
Humidity
(%)
Dew Point
(°F)
Wind
(mph)
Pressure
(inches)
Visibility
(miles)
27 May 2015
19:00 Mostly Cloudy 47 88 44 W 4 30.3 15
18:00 Mostly Cloudy 46 88 43 W 3 30.3 15
17:00 Light Rain 46 83 41 NW 3 30.3 15
16:00 Light Rain 46 85 42 N 5 30.3 15
15:00 Mostly Cloudy 45   88 42 NNW 10 30.3 15
14:00 Mostly Cloudy 46 92 44 NNW 10 30.3 10
13:00 Light Rain 46 91 44 NNW 10 30.3 10
12:00 Light Rain 48 91 45 N 11 30.2 10
11:00 Light Rain 49 88 45 N 10 gust 20 30.2 10
10:00 Light Rain 50 92 48 NNW 8 30.2 10
9:00 Light Rain 51 91 48 NNW 10 30.1 10
8:00 Mostly Cloudy 51 92 49 NW 12 30.1 10
7:00 Mostly Cloudy 53 92 51 NW 11 30.0 15
6:00 Light Rain 55 94 53 NW 7 30.0 15
5:00 Mostly Cloudy 55 91 53 NW 9 30.0 15
4:00 Mostly Cloudy 56 90 53 NW 10 30.0 15
3:00 Mostly Cloudy 57 89 53 NW 9 30.0 15
2:00 Mostly Cloudy 57 90 54 WNW 3 30.0 15
1:00 Mostly Cloudy 58 88 54 NW 4 29.9 15
00:00 Mostly Cloudy 59 87 55 WNW 5 30.0 15
26 May 2015
23:00 Mostly Cloudy 59 84 55 W 7 30.0 15
22:00 Mostly Cloudy 61 80 55 NNE 8 29.9 15
21:00 Mostly Cloudy 61 91 59 calm 29.9 15
20:00 Light Rain 60 92 58 WSW 2 29.9 10
19:00 Thunderstorm with Light Rain 63   73 54 NNW 6 gust 17 29.9 10
N/A Not available
↑ Highest temperature
↓ Lowest temperature

If you require additional historical weather information, please visit Climate Data Online.

What we are doing

Date modified: